Time;durP1;ratioP1;P1;durP2;ratioP2;P2;SDS_P1;SDS_P2;PMS_P1;PMS_P2;Temp;Humidity;BMP_temperature;BMP_pressure;BME280_temperature;BME280_humidity;BME280_pressure;Samples;Min_cycle;Max_cycle;Signal;HPM_P1;HPM_P2
2023/10/04 00:01:16;;;;;;;4.10;1.40;;;;;;;12.53;98.97;101029.44;105063;1260;71491;-58
2023/10/04 00:03:46;;;;;;;4.30;1.40;;;;;;;12.53;99.07;101039.28;105143;1260;69321;-58
2023/10/04 00:06:17;;;;;;;6.80;1.60;;;;;;;12.53;99.17;101041.38;105085;1260;69202;-58
2023/10/04 00:08:46;;;;;;;6.00;2.00;;;;;;;12.49;99.19;101043.23;105099;1260;71391;-58
2023/10/04 00:11:14;;;;;;;4.30;1.40;;;;;;;12.47;99.10;101056.64;105047;1262;81584;-58
2023/10/04 00:13:44;;;;;;;6.30;1.60;;;;;;;12.48;99.33;101058.37;105129;1262;72755;-58
2023/10/04 00:16:13;;;;;;;6.70;1.70;;;;;;;12.46;99.17;101060.87;105101;1262;69191;-58
2023/10/04 00:18:42;;;;;;;7.90;2.40;;;;;;;12.45;99.34;101056.54;105128;1261;69209;-57
2023/10/04 00:21:10;;;;;;;6.50;1.40;;;;;;;12.44;99.39;101059.38;105059;1260;72905;-57
2023/10/04 00:23:39;;;;;;;6.60;1.60;;;;;;;12.42;99.22;101062.59;105107;1259;81730;-57
2023/10/04 00:26:08;;;;;;;5.50;1.40;;;;;;;12.36;99.01;101062.97;105122;1260;74015;-57
2023/10/04 00:28:38;;;;;;;6.30;1.80;;;;;;;12.31;98.91;101060.35;105087;1259;69101;-57
2023/10/04 00:31:06;;;;;;;9.80;2.00;;;;;;;12.27;99.11;101058.20;105116;1262;69193;-57
2023/10/04 00:33:35;;;;;;;6.10;1.40;;;;;;;12.20;98.81;101061.40;105140;1262;71977;-58
2023/10/04 00:36:04;;;;;;;8.10;1.40;;;;;;;12.19;99.05;101069.15;105106;1262;81708;-58
2023/10/04 00:38:32;;;;;;;8.50;1.40;;;;;;;12.16;99.15;101068.21;105076;1262;72029;-57
2023/10/04 00:41:00;;;;;;;4.20;1.40;;;;;;;12.13;99.06;101069.86;105032;1262;69206;-57
2023/10/04 00:43:28;;;;;;;4.00;1.40;;;;;;;12.12;99.15;101066.60;105132;1262;69185;-57
2023/10/04 00:45:57;;;;;;;5.10;1.90;;;;;;;12.09;99.10;101070.37;105123;1260;73156;-57
2023/10/04 00:48:31;;;;;;;6.70;1.80;;;;;;;12.07;99.48;101082.69;105043;1259;82797;-57
2023/10/04 00:51:00;;;;;;;7.40;1.90;;;;;;;12.06;99.18;101090.07;105051;1260;72612;-57
2023/10/04 00:53:29;;;;;;;6.70;1.70;;;;;;;12.03;99.31;101100.52;105108;1259;69195;-57
2023/10/04 00:55:57;;;;;;;4.70;1.40;;;;;;;12.03;99.50;101102.62;105108;1262;69213;-57
2023/10/04 00:58:28;;;;;;;8.30;1.90;;;;;;;12.04;99.31;101104.16;105151;1259;72844;-57
2023/10/04 01:00:56;;;;;;;;;;;;;;;12.01;99.33;101101.42;105114;1260;81965;-58
2023/10/04 01:03:28;;;;;;;6.60;2.30;;;;;;;12.01;99.52;101107.92;105096;1260;72675;-57
2023/10/04 01:05:58;;;;;;;6.90;1.90;;;;;;;11.98;99.56;101106.96;105057;1262;69135;-57
2023/10/04 01:08:28;;;;;;;6.90;2.10;;;;;;;11.99;99.43;101112.71;105103;1259;69201;-57
2023/10/04 01:10:57;;;;;;;11.70;2.80;;;;;;;12.00;99.68;101114.63;105078;1260;73218;-57
2023/10/04 01:13:26;;;;;;;4.90;1.90;;;;;;;12.00;99.43;101124.44;105094;1260;81530;-57
2023/10/04 01:15:55;;;;;;;6.70;1.90;;;;;;;11.99;99.51;101122.69;105119;1258;71524;-57
2023/10/04 01:18:24;;;;;;;6.50;2.20;;;;;;;11.99;99.31;101117.98;105098;1260;69135;-55
2023/10/04 01:20:52;;;;;;;5.30;1.90;;;;;;;11.97;99.42;101119.96;105128;1259;69157;-57
2023/10/04 01:23:20;;;;;;;7.30;2.00;;;;;;;11.95;99.34;101123.54;105101;1260;72929;-57
2023/10/04 01:25:49;;;;;;;6.10;1.90;;;;;;;11.94;99.37;101124.77;105036;1260;81510;-57
2023/10/04 01:28:18;;;;;;;5.60;1.70;;;;;;;11.95;99.51;101124.08;105035;1262;71970;-57
2023/10/04 01:30:49;;;;;;;9.00;1.70;;;;;;;11.93;99.34;101123.08;105082;1262;69193;-57
2023/10/04 01:33:20;;;;;;;8.10;2.00;;;;;;;11.88;99.32;101132.86;105073;1262;69126;-56
2023/10/04 01:35:53;;;;;;;8.30;1.90;;;;;;;11.84;99.30;101138.38;105111;1260;73072;-57
2023/10/04 01:38:24;;;;;;;7.50;2.40;;;;;;;11.79;99.11;101146.58;105059;1259;81633;-57
2023/10/04 01:40:55;;;;;;;4.70;1.70;;;;;;;11.76;99.30;101143.34;105055;1260;71645;-57
2023/10/04 01:43:25;;;;;;;7.30;1.80;;;;;;;11.73;99.32;101147.11;105082;1260;69177;-57
2023/10/04 01:45:58;;;;;;;3.90;1.70;;;;;;;11.71;99.31;101149.27;105056;1265;69226;-57
2023/10/04 01:48:31;;;;;;;4.10;1.80;;;;;;;11.68;99.28;101146.72;105110;1262;73623;-57
2023/10/04 01:51:03;;;;;;;5.70;1.80;;;;;;;11.68;99.24;101147.98;105039;1265;81656;-57
2023/10/04 01:53:34;;;;;;;5.40;2.00;;;;;;;11.67;99.47;101150.62;105102;1262;71051;-57
2023/10/04 01:56:05;;;;;;;4.80;1.60;;;;;;;11.66;99.48;101141.18;105055;1259;69185;-57
2023/10/04 01:58:34;;;;;;;7.60;1.70;;;;;;;11.65;99.53;101144.55;105087;1260;69132;-56
2023/10/04 02:01:03;;;;;;;6.80;1.50;;;;;;;11.60;99.24;101148.71;105132;1259;71792;-55
2023/10/04 02:03:32;;;;;;;5.20;1.60;;;;;;;11.58;99.27;101144.39;105056;1260;82022;-57
2023/10/04 02:06:01;;;;;;;6.60;2.20;;;;;;;11.57;99.45;101145.30;105082;1262;73143;-57
2023/10/04 02:08:31;;;;;;;5.60;1.60;;;;;;;11.55;99.44;101152.73;105081;1262;69132;-58
2023/10/04 02:11:03;;;;;;;6.60;1.80;;;;;;;11.53;99.43;101156.64;105087;1262;69240;-58
2023/10/04 02:13:32;;;;;;;4.70;1.80;;;;;;;11.51;99.36;101154.58;105028;1259;72906;-57
2023/10/04 02:16:02;;;;;;;4.60;1.70;;;;;;;11.51;99.50;101150.05;105065;1259;80014;-57
2023/10/04 02:18:32;;;;;;;5.30;1.80;;;;;;;11.52;99.68;101155.23;105096;1260;71814;-58
2023/10/04 02:21:00;;;;;;;5.60;1.80;;;;;;;11.55;99.83;101153.93;105061;1262;69580;-58
2023/10/04 02:23:29;;;;;;;6.70;1.80;;;;;;;11.58;99.84;101156.48;105012;1260;69140;-58
2023/10/04 02:25:58;;;;;;;8.00;1.90;;;;;;;11.59;99.76;101159.59;105128;1262;73041;-57
2023/10/04 02:28:26;;;;;;;7.00;2.00;;;;;;;11.63;99.74;101166.66;105129;1259;82856;-57
2023/10/04 02:30:54;;;;;;;6.90;2.00;;;;;;;11.66;99.90;101169.04;105033;1259;70824;-57
2023/10/04 02:33:32;;;;;;;6.80;2.20;;;;;;;11.68;99.91;101175.09;105067;1260;69144;-57
2023/10/04 02:36:04;;;;;;;4.40;1.90;;;;;;;11.75;100.00;101178.56;105061;1262;69229;-58
2023/10/04 02:38:34;;;;;;;8.50;3.00;;;;;;;11.82;100.00;101179.59;105114;1262;72916;-56
2023/10/04 02:41:05;;;;;;;5.00;2.00;;;;;;;11.88;100.00;101182.95;105049;1262;81306;-57
2023/10/04 02:43:35;;;;;;;4.50;1.90;;;;;;;11.94;100.00;101182.22;105060;1259;73080;-57
2023/10/04 02:46:04;;;;;;;5.50;2.10;;;;;;;12.02;99.96;101182.52;105063;1260;69160;-57
2023/10/04 02:48:34;;;;;;;7.60;3.20;;;;;;;12.09;99.98;101175.47;105092;1262;69189;-57
2023/10/04 02:51:04;;;;;;;7.00;2.10;;;;;;;12.15;99.98;101174.92;105103;1260;73068;-57
2023/10/04 02:53:34;;;;;;;;;;;;;;;12.20;100.00;101178.98;105097;1260;83766;-57
2023/10/04 02:56:07;;;;;;;5.30;2.20;;;;;;;12.24;100.00;101180.59;105086;1260;71963;-58
2023/10/04 02:58:44;;;;;;;5.60;1.80;;;;;;;12.29;99.99;101182.20;105070;1262;69126;-59
2023/10/04 03:01:21;;;;;;;5.80;1.60;;;;;;;12.32;99.99;101186.64;105059;1262;69206;-59
2023/10/04 03:03:52;;;;;;;9.60;2.80;;;;;;;12.34;99.88;101193.60;105094;1260;73167;-59
2023/10/04 03:06:23;;;;;;;8.50;2.80;;;;;;;12.36;99.89;101200.05;105075;1262;83706;-58
2023/10/04 03:08:55;;;;;;;6.50;2.20;;;;;;;12.38;99.82;101195.40;105095;1260;71877;-59
2023/10/04 03:11:25;;;;;;;7.80;1.80;;;;;;;12.40;99.74;101204.62;105094;1262;69228;-58
2023/10/04 03:13:53;;;;;;;7.10;2.20;;;;;;;12.41;99.48;101204.60;105090;1260;69129;-59
2023/10/04 03:16:22;;;;;;;7.70;1.90;;;;;;;12.40;99.43;101207.96;105105;1265;73199;-59
2023/10/04 03:18:50;;;;;;;3.90;1.40;;;;;;;12.39;99.14;101215.19;105105;1260;82063;-59
2023/10/04 03:21:22;;;;;;;6.20;1.90;;;;;;;12.39;99.08;101215.71;105097;1260;72227;-59
2023/10/04 03:23:54;;;;;;;4.40;1.60;;;;;;;12.39;98.78;101220.65;105042;1262;69153;-59
2023/10/04 03:26:22;;;;;;;6.40;1.90;;;;;;;12.38;98.72;101224.15;105054;1262;69107;-56
2023/10/04 03:28:54;;;;;;;3.30;1.40;;;;;;;12.37;98.73;101221.36;105075;1260;74072;-56
2023/10/04 03:31:26;;;;;;;7.50;1.90;;;;;;;12.39;98.90;101227.81;105068;1262;83739;-57
2023/10/04 03:33:56;;;;;;;6.60;1.60;;;;;;;12.39;98.60;101231.49;105067;1260;72310;-57
2023/10/04 03:36:29;;;;;;;2.70;1.60;;;;;;;12.38;98.21;101228.17;105092;1261;69252;-58
2023/10/04 03:39:01;;;;;;;6.10;1.60;;;;;;;12.40;97.97;101224.63;105100;1260;69168;-57
2023/10/04 03:41:30;;;;;;;5.60;1.50;;;;;;;12.40;97.61;101228.11;105121;1260;72862;-57
2023/10/04 03:44:04;;;;;;;5.30;1.70;;;;;;;12.40;97.13;101230.23;105056;1262;82032;-57
2023/10/04 03:46:34;;;;;;;5.10;1.70;;;;;;;12.38;96.78;101226.77;105074;1260;72002;-58
2023/10/04 03:49:03;;;;;;;6.80;2.50;;;;;;;12.35;96.23;101226.54;105055;1259;69196;-58
2023/10/04 03:51:33;;;;;;;7.90;1.90;;;;;;;12.33;96.13;101227.13;105099;1262;69199;-58
2023/10/04 03:54:07;;;;;;;4.20;1.60;;;;;;;12.30;95.98;101229.86;105046;1260;73439;-58
2023/10/04 03:56:41;;;;;;;3.60;1.40;;;;;;;12.26;95.78;101231.36;105089;1262;81441;-58
2023/10/04 03:59:10;;;;;;;7.30;1.80;;;;;;;12.23;95.65;101236.89;105048;1260;72409;-58
2023/10/04 04:01:39;;;;;;;6.40;1.40;;;;;;;12.20;95.48;101241.20;105028;1263;69256;-58
2023/10/04 04:04:14;;;;;;;8.60;2.70;;;;;;;12.16;95.24;101242.34;105070;1259;69212;-58
2023/10/04 04:06:43;;;;;;;7.70;2.00;;;;;;;12.13;95.19;101242.96;105085;1262;72514;-58
2023/10/04 04:09:13;;;;;;;6.40;1.50;;;;;;;12.11;95.21;101247.27;105083;1262;81725;-58
2023/10/04 04:11:41;;;;;;;2.90;1.50;;;;;;;12.08;95.09;101242.77;105101;1259;71559;-58
2023/10/04 04:14:10;;;;;;;10.50;1.90;;;;;;;12.05;95.07;101244.77;105040;1262;69210;-57
2023/10/04 04:16:38;;;;;;;3.80;1.60;;;;;;;12.03;95.00;101253.08;105098;1261;69203;-58
2023/10/04 04:19:09;;;;;;;7.50;1.70;;;;;;;12.02;95.06;101254.33;105092;1260;72674;-57
2023/10/04 04:21:37;;;;;;;5.80;1.50;;;;;;;12.01;94.89;101261.02;105043;1262;81988;-58
2023/10/04 04:24:06;;;;;;;4.60;1.60;;;;;;;12.02;95.10;101263.09;105044;1262;71834;-57
2023/10/04 04:26:35;;;;;;;5.00;1.80;;;;;;;12.02;95.05;101258.35;105097;1262;69164;-57
2023/10/04 04:29:04;;;;;;;5.30;1.40;;;;;;;12.03;94.98;101261.31;105103;1262;69202;-57
2023/10/04 04:31:34;;;;;;;8.20;2.40;;;;;;;12.03;94.97;101264.98;105070;1263;73070;-57
2023/10/04 04:34:09;;;;;;;7.40;1.50;;;;;;;12.02;94.76;101266.05;104997;1262;81639;-58
2023/10/04 04:36:38;;;;;;;10.80;1.70;;;;;;;12.01;94.96;101268.38;105040;1263;73067;-58
2023/10/04 04:39:12;;;;;;;6.80;2.00;;;;;;;11.98;94.54;101272.13;105010;1265;69193;-57
2023/10/04 04:41:40;;;;;;;7.30;1.70;;;;;;;11.95;94.49;101278.70;105039;1260;69075;-58
2023/10/04 04:44:10;;;;;;;5.10;1.40;;;;;;;11.91;94.47;101276.20;105047;1262;72053;-57
2023/10/04 04:46:43;;;;;;;5.30;1.60;;;;;;;11.88;94.43;101278.23;105082;1260;82775;-57
2023/10/04 04:49:12;;;;;;;;;;;;;;;11.85;94.46;101279.33;105025;1260;70987;-58
2023/10/04 04:51:41;;;;;;;4.50;1.70;;;;;;;11.79;94.38;101282.60;105096;1260;69207;-58
2023/10/04 04:54:10;;;;;;;3.80;1.30;;;;;;;11.74;94.34;101278.72;105026;1264;69198;-58
2023/10/04 04:56:39;;;;;;;8.00;1.70;;;;;;;11.70;94.35;101278.34;105092;1260;73368;-58
2023/10/04 04:59:11;;;;;;;4.00;1.70;;;;;;;11.67;94.43;101276.66;105055;1263;81456;-58
2023/10/04 05:01:41;;;;;;;;;;;;;;;11.63;94.33;101282.38;105104;1260;71939;-58
2023/10/04 05:04:11;;;;;;;8.50;1.60;;;;;;;11.57;94.37;101275.35;105031;1260;69112;-57
2023/10/04 05:06:39;;;;;;;3.60;1.50;;;;;;;11.52;94.31;101274.62;105106;1264;69176;-58
2023/10/04 05:09:10;;;;;;;4.00;1.50;;;;;;;11.46;94.36;101280.38;105120;1263;72751;-58
2023/10/04 05:11:39;;;;;;;8.50;2.40;;;;;;;11.41;94.28;101279.46;105063;1262;80645;-58
2023/10/04 05:14:09;;;;;;;6.20;1.80;;;;;;;11.36;94.33;101276.09;105036;1263;71913;-58
2023/10/04 05:16:38;;;;;;;;;;;;;;;11.32;94.51;101275.49;105081;1262;69196;-58
2023/10/04 05:19:10;;;;;;;6.00;2.20;;;;;;;11.30;94.64;101275.38;105065;1262;69170;-58
2023/10/04 05:21:38;;;;;;;7.00;1.80;;;;;;;11.28;94.50;101281.73;105064;1262;74200;-58
2023/10/04 05:24:10;;;;;;;7.00;1.60;;;;;;;11.26;94.55;101271.83;105023;1261;81416;-58
2023/10/04 05:26:38;;;;;;;5.30;1.80;;;;;;;11.24;94.56;101272.02;105070;1260;71866;-58
2023/10/04 05:29:07;;;;;;;6.30;1.90;;;;;;;11.23;94.62;101272.77;105043;1262;69113;-58
2023/10/04 05:31:37;;;;;;;5.00;1.50;;;;;;;11.23;94.57;101272.95;105072;1262;69282;-58
2023/10/04 05:34:05;;;;;;;5.10;2.00;;;;;;;11.22;94.74;101286.60;105095;1260;73354;-58
2023/10/04 05:36:39;;;;;;;8.50;1.90;;;;;;;11.22;94.72;101288.52;105105;1263;81530;-58
2023/10/04 05:39:11;;;;;;;6.40;1.80;;;;;;;11.23;94.72;101287.45;105013;1263;70939;-58
2023/10/04 05:41:39;;;;;;;5.10;1.60;;;;;;;11.23;94.66;101293.75;105002;1264;69116;-58
2023/10/04 05:44:08;;;;;;;3.40;1.50;;;;;;;11.24;94.88;101297.93;104993;1262;69196;-58
2023/10/04 05:46:44;;;;;;;5.00;1.90;;;;;;;11.23;94.80;101303.71;105081;1261;72912;-58
2023/10/04 05:49:12;;;;;;;5.90;1.80;;;;;;;11.24;94.78;101304.40;105049;1265;81768;-58
2023/10/04 05:51:41;;;;;;;3.60;1.30;;;;;;;11.25;94.88;101306.48;105049;1262;72438;-58
2023/10/04 05:54:10;;;;;;;3.70;1.60;;;;;;;11.25;94.87;101308.41;105029;1262;69116;-58
2023/10/04 05:56:39;;;;;;;4.80;1.60;;;;;;;11.26;95.16;101316.77;105091;1262;69146;-58
2023/10/04 05:59:10;;;;;;;4.40;1.70;;;;;;;11.28;95.04;101311.99;105109;1262;72076;-58
2023/10/04 06:01:39;;;;;;;6.40;1.80;;;;;;;11.31;95.08;101318.05;105034;1262;81590;-58
2023/10/04 06:04:10;;;;;;;5.00;1.50;;;;;;;11.33;94.99;101324.99;105044;1273;71852;-58
2023/10/04 06:06:43;;;;;;;5.90;2.20;;;;;;;11.34;95.01;101324.77;104995;1263;69189;-57
2023/10/04 06:09:11;;;;;;;6.70;1.50;;;;;;;11.36;94.93;101330.52;105449;1260;69214;-57
2023/10/04 06:11:39;;;;;;;6.30;2.10;;;;;;;11.38;95.07;101331.48;105056;1264;73357;-58
2023/10/04 06:14:08;;;;;;;7.60;1.90;;;;;;;11.42;95.02;101330.90;105015;1263;81436;-58
2023/10/04 06:16:36;;;;;;;3.90;1.30;;;;;;;11.45;95.05;101337.28;105095;1262;71951;-57
2023/10/04 06:19:04;;;;;;;4.50;1.50;;;;;;;11.47;94.99;101345.45;105074;1271;69136;-57
2023/10/04 06:21:53;;;;;;;7.80;1.60;;;;;;;11.52;94.99;101344.45;104953;1262;164509;-58
2023/10/04 06:24:21;;;;;;;5.00;1.50;;;;;;;11.56;94.88;101355.02;105196;1262;74121;-58
2023/10/04 06:26:50;;;;;;;5.90;1.60;;;;;;;11.61;94.98;101353.67;105362;1262;82778;-58
2023/10/04 06:29:18;;;;;;;5.20;1.90;;;;;;;11.66;94.73;101358.27;105201;1262;73256;-59
2023/10/04 06:31:46;;;;;;;4.50;1.70;;;;;;;11.70;94.63;101354.31;105075;1262;69151;-60
2023/10/04 06:34:15;;;;;;;4.90;1.60;;;;;;;11.75;94.55;101354.17;105280;1262;69212;-61
2023/10/04 06:36:44;;;;;;;6.90;1.60;;;;;;;11.81;94.46;101351.05;105282;1259;73139;-59
2023/10/04 06:39:12;;;;;;;3.50;1.90;;;;;;;11.86;94.33;101357.94;105421;1262;81934;-60
2023/10/04 06:41:40;;;;;;;4.10;1.60;;;;;;;11.92;94.18;101360.93;105165;1261;71729;-60
2023/10/04 06:44:10;;;;;;;3.60;1.50;;;;;;;11.98;94.14;101362.35;105058;1262;69193;-60
2023/10/04 06:46:39;;;;;;;5.70;2.00;;;;;;;12.03;93.91;101365.55;105099;1262;69101;-60
2023/10/04 06:49:07;;;;;;;4.90;1.80;;;;;;;12.09;93.89;101365.55;105217;1262;73430;-59
2023/10/04 06:51:36;;;;;;;5.20;1.50;;;;;;;12.13;93.77;101370.68;105065;1263;81673;-60
2023/10/04 06:54:05;;;;;;;5.20;1.80;;;;;;;12.18;93.65;101370.21;105118;1264;72767;-59
2023/10/04 06:56:33;;;;;;;3.30;1.40;;;;;;;12.23;93.31;101374.27;105152;1260;69097;-59
2023/10/04 06:59:01;;;;;;;4.20;1.40;;;;;;;12.27;93.23;101373.45;105065;1266;69312;-59
2023/10/04 07:01:31;;;;;;;5.60;1.60;;;;;;;12.33;93.01;101369.24;105259;1261;72830;-60
2023/10/04 07:03:59;;;;;;;3.90;1.90;;;;;;;12.39;92.91;101374.70;105229;1263;82598;-59
2023/10/04 07:06:30;;;;;;;3.70;1.50;;;;;;;12.45;92.87;101373.61;105073;1261;72221;-59
2023/10/04 07:08:59;;;;;;;7.20;1.50;;;;;;;12.50;92.71;101379.79;105151;1259;69125;-59
2023/10/04 07:11:27;;;;;;;5.60;1.50;;;;;;;12.55;92.44;101377.54;105168;1260;69222;-59
2023/10/04 07:13:55;;;;;;;8.30;1.80;;;;;;;12.61;92.16;101366.67;105146;1264;72870;-60
2023/10/04 07:16:24;;;;;;;3.80;1.30;;;;;;;12.67;92.19;101369.64;105082;1262;82721;-59
2023/10/04 07:18:52;;;;;;;4.90;1.90;;;;;;;12.74;92.05;101368.05;105144;1264;71636;-59
2023/10/04 07:21:20;;;;;;;4.20;1.50;;;;;;;12.80;91.91;101375.21;105293;1271;69178;-59
2023/10/04 07:23:49;;;;;;;4.60;1.50;;;;;;;12.87;91.72;101378.67;105094;1262;69295;-60
2023/10/04 07:26:17;;;;;;;3.10;1.40;;;;;;;12.94;91.07;101379.86;105167;1262;73535;-60
2023/10/04 07:28:46;;;;;;;6.20;2.30;;;;;;;13.01;91.14;101380.35;104999;1263;82883;-60
2023/10/04 07:31:14;;;;;;;3.30;1.40;;;;;;;13.11;91.03;101374.95;105026;1269;71373;-60
2023/10/04 07:33:42;;;;;;;2.90;1.50;;;;;;;13.23;91.23;101382.83;105065;1264;69134;-60
2023/10/04 07:36:10;;;;;;;4.60;1.50;;;;;;;13.35;91.04;101380.33;105024;1261;69205;-61
2023/10/04 07:38:39;;;;;;;4.80;1.70;;;;;;;13.46;90.61;101381.22;105001;1258;73463;-61
2023/10/04 07:41:07;;;;;;;4.70;1.60;;;;;;;13.54;90.28;101386.38;105033;1263;81738;-60
2023/10/04 07:43:35;;;;;;;5.80;1.40;;;;;;;13.61;89.94;101383.67;105004;1261;72826;-59
2023/10/04 07:46:04;;;;;;;5.00;1.70;;;;;;;13.65;89.30;101400.77;105032;1263;69096;-59
2023/10/04 07:48:32;;;;;;;3.20;1.50;;;;;;;13.65;88.74;101395.69;105010;1262;69195;-59
2023/10/04 07:51:01;;;;;;;6.40;1.80;;;;;;;13.65;88.64;101406.05;105049;1262;74223;-58
2023/10/04 07:53:29;;;;;;;3.80;1.80;;;;;;;13.64;88.43;101409.06;105130;1260;83644;-59
2023/10/04 07:55:57;;;;;;;5.50;2.00;;;;;;;13.64;88.24;101411.16;105010;1262;71804;-58
2023/10/04 07:58:26;;;;;;;3.50;1.30;;;;;;;13.64;88.04;101419.27;105020;1262;69201;-59
2023/10/04 08:00:54;;;;;;;4.90;1.40;;;;;;;13.63;87.90;101422.63;105136;1263;69134;-59
2023/10/04 08:03:25;;;;;;;3.00;1.50;;;;;;;13.63;87.60;101420.52;105051;1262;74021;-59
2023/10/04 08:05:55;;;;;;;4.70;1.50;;;;;;;13.62;87.43;101426.70;105060;1264;80695;-59
2023/10/04 08:08:23;;;;;;;4.50;1.60;;;;;;;13.62;87.07;101429.34;105095;1261;72349;-59
2023/10/04 08:10:51;;;;;;;3.50;1.20;;;;;;;13.65;87.10;101432.02;105114;1263;69103;-59
2023/10/04 08:13:19;;;;;;;4.00;1.80;;;;;;;13.72;86.91;101435.13;105057;1261;69254;-59
2023/10/04 08:15:48;;;;;;;4.80;1.80;;;;;;;13.80;86.80;101434.33;105035;1264;72941;-59
2023/10/04 08:18:16;;;;;;;4.60;1.20;;;;;;;13.85;86.28;101439.08;105098;1262;81990;-59
2023/10/04 08:20:46;;;;;;;4.60;1.40;;;;;;;13.90;85.87;101441.22;105043;1263;72810;-59
2023/10/04 08:23:16;;;;;;;4.60;1.50;;;;;;;13.96;85.96;101445.02;105109;1263;69177;-60
2023/10/04 08:25:45;;;;;;;6.00;1.50;;;;;;;14.04;85.72;101440.38;105064;1263;69183;-60
2023/10/04 08:28:13;;;;;;;6.10;1.90;;;;;;;14.15;85.71;101438.75;105099;1262;73234;-59
2023/10/04 08:30:42;;;;;;;4.50;1.70;;;;;;;14.27;85.67;101439.55;105343;1264;81822;-59
2023/10/04 08:33:10;;;;;;;5.00;1.60;;;;;;;14.38;85.32;101440.21;105026;1264;73366;-59
2023/10/04 08:35:39;;;;;;;7.10;1.60;;;;;;;14.49;85.14;101444.40;105234;1271;69217;-60
2023/10/04 08:38:07;;;;;;;4.70;2.00;;;;;;;14.56;84.80;101437.31;105370;1259;69216;-60
2023/10/04 08:40:42;;;;;;;5.60;1.80;;;;;;;14.64;84.67;101432.80;105279;1261;74225;-60
2023/10/04 08:43:11;;;;;;;4.90;1.80;;;;;;;14.72;84.29;101437.04;105089;1264;81374;-59
2023/10/04 08:45:39;;;;;;;3.00;1.30;;;;;;;14.78;83.89;101439.33;105220;1262;73097;-60
2023/10/04 08:48:09;;;;;;;6.50;1.60;;;;;;;14.84;83.74;101451.90;105283;1260;69141;-60
2023/10/04 08:50:55;;;;;;;4.90;1.30;;;;;;;14.88;83.37;101447.20;105142;1260;69198;-59
2023/10/04 08:53:53;;;;;;;4.90;1.20;;;;;;;14.93;83.26;101442.92;105068;1263;74622;-60
2023/10/04 08:56:23;;;;;;;4.20;1.50;;;;;;;14.97;82.83;101448.42;105136;1264;81435;-60
2023/10/04 08:58:51;;;;;;;3.80;1.20;;;;;;;14.99;82.75;101451.18;105171;1260;73316;-60
2023/10/04 09:01:21;;;;;;;3.50;1.40;;;;;;;15.02;82.48;101446.48;105202;1258;69593;-59
2023/10/04 09:03:50;;;;;;;4.00;1.50;;;;;;;15.03;81.92;101453.98;105200;1260;69180;-60
2023/10/04 09:06:19;;;;;;;6.10;1.60;;;;;;;15.09;81.97;101448.29;105117;1263;72995;-60
2023/10/04 09:08:49;;;;;;;4.20;1.60;;;;;;;15.13;81.57;101456.59;105195;1263;81584;-59
2023/10/04 09:11:17;;;;;;;6.70;1.50;;;;;;;15.12;81.35;101455.25;105201;1259;70619;-59
2023/10/04 09:13:52;;;;;;;4.20;1.80;;;;;;;15.12;81.06;101459.44;105165;1261;69182;-59
2023/10/04 09:16:28;;;;;;;5.50;1.60;;;;;;;15.13;81.04;101456.76;105151;1261;69758;-60
2023/10/04 09:19:07;;;;;;;5.80;1.70;;;;;;;15.15;80.82;101455.11;105169;1262;71857;-60
2023/10/04 09:21:38;;;;;;;3.90;1.60;;;;;;;15.19;80.68;101456.52;105146;1263;81197;-59
2023/10/04 09:24:09;;;;;;;2.70;1.50;;;;;;;15.23;80.46;101456.20;105122;1261;73741;-60
2023/10/04 09:26:52;;;;;;;6.30;1.80;;;;;;;15.29;80.56;101453.69;105135;1261;69090;-61
2023/10/04 09:29:32;;;;;;;4.80;2.20;;;;;;;15.40;80.47;101458.36;105127;1261;69233;-60
2023/10/04 09:32:00;;;;;;;3.70;1.50;;;;;;;15.42;79.86;101456.34;105368;1262;73355;-60
2023/10/04 09:34:30;;;;;;;6.40;2.00;;;;;;;15.38;79.21;101460.20;105245;1261;80705;-60
2023/10/04 09:36:58;;;;;;;2.80;1.60;;;;;;;15.33;79.25;101456.87;105259;1261;71527;-60
2023/10/04 09:39:31;;;;;;;4.80;1.90;;;;;;;15.36;79.37;101458.52;105159;1258;69151;-60
2023/10/04 09:42:04;;;;;;;5.00;1.90;;;;;;;15.36;79.06;101457.11;105250;1260;69264;-60
2023/10/04 09:44:35;;;;;;;3.50;1.40;;;;;;;15.42;79.24;101452.66;105122;1261;73341;-61
2023/10/04 09:47:05;;;;;;;5.20;2.20;;;;;;;15.46;79.16;101452.82;105246;1261;80722;-60
2023/10/04 09:49:35;;;;;;;4.10;1.60;;;;;;;15.49;78.91;101452.00;105181;1262;72323;-60
2023/10/04 09:52:10;;;;;;;4.20;1.40;;;;;;;15.52;78.71;101448.69;105135;1261;69080;-60
2023/10/04 09:54:39;;;;;;;5.20;1.60;;;;;;;15.52;78.46;101446.77;105198;1261;69228;-60
2023/10/04 09:57:12;;;;;;;4.60;1.60;;;;;;;15.53;78.50;101450.58;105212;1261;73227;-60
2023/10/04 09:59:43;;;;;;;6.90;2.00;;;;;;;15.53;78.06;101445.66;105143;1261;80591;-60
2023/10/04 10:02:15;;;;;;;4.80;1.70;;;;;;;15.54;78.02;101447.02;105136;1261;73438;-59
2023/10/04 10:04:44;;;;;;;5.00;1.70;;;;;;;15.57;77.83;101441.10;105376;1258;69094;-60
2023/10/04 10:07:20;;;;;;;4.80;1.80;;;;;;;15.60;77.72;101435.16;105250;1261;69038;-60
2023/10/04 10:10:05;;;;;;;5.60;2.00;;;;;;;15.67;77.63;101433.45;105263;1264;72217;-60
2023/10/04 10:12:43;;;;;;;6.20;1.90;;;;;;;15.74;77.06;101435.15;105229;1262;82551;-60
2023/10/04 10:15:13;;;;;;;4.60;1.50;;;;;;;15.73;76.90;101438.55;105158;1260;70909;-60
2023/10/04 10:17:43;;;;;;;6.10;1.60;;;;;;;15.77;76.93;101435.35;105190;1264;69205;-60
2023/10/04 10:20:15;;;;;;;6.20;1.80;;;;;;;15.84;76.81;101440.73;105226;1263;69257;-60
2023/10/04 10:22:58;;;;;;;3.60;1.50;;;;;;;15.86;76.47;101440.11;105207;1264;71862;-61
2023/10/04 10:25:29;;;;;;;3.20;1.50;;;;;;;15.92;76.49;101447.79;105153;1264;82063;-61
2023/10/04 10:27:57;;;;;;;;;;;;;;;15.93;76.29;101446.48;105318;1262;71101;-59
2023/10/04 10:30:25;;;;;;;3.70;1.60;;;;;;;15.93;76.24;101446.13;105256;1263;69232;-59
2023/10/04 10:32:58;;;;;;;3.90;1.80;;;;;;;15.92;75.75;101450.98;105124;1264;69249;-60
2023/10/04 10:35:46;;;;;;;4.80;2.00;;;;;;;15.94;75.84;101448.06;105216;1260;72986;-59
2023/10/04 10:38:41;;;;;;;5.20;1.80;;;;;;;15.98;75.79;101452.80;105176;1263;81609;-60
2023/10/04 10:41:28;;;;;;;5.50;1.70;;;;;;;16.03;75.53;101462.29;104989;1262;72265;-59
2023/10/04 10:44:11;;;;;;;4.20;1.60;;;;;;;16.02;75.16;101455.45;105177;1264;69138;-59
2023/10/04 10:46:56;;;;;;;7.10;1.70;;;;;;;15.97;74.77;101459.73;105075;1262;69212;-59
2023/10/04 10:49:39;;;;;;;6.10;2.00;;;;;;;15.92;74.55;101459.95;105186;1261;74639;-59
2023/10/04 10:52:09;;;;;;;3.90;1.40;;;;;;;15.85;74.46;101464.46;105214;1262;82879;-58
2023/10/04 10:54:38;;;;;;;5.70;1.90;;;;;;;15.83;74.62;101462.77;105251;1260;71968;-59
2023/10/04 10:57:07;;;;;;;6.30;1.70;;;;;;;15.93;75.00;101455.52;105371;1264;69203;-60
2023/10/04 10:59:35;;;;;;;4.20;1.70;;;;;;;15.98;74.74;101457.37;105084;1261;69183;-59
2023/10/04 11:02:04;;;;;;;5.00;1.60;;;;;;;16.07;74.82;101453.83;105102;1263;72186;-61
2023/10/04 11:04:33;;;;;;;3.30;1.60;;;;;;;16.26;74.73;101453.89;105252;1261;81760;-62
2023/10/04 11:07:01;;;;;;;6.00;2.20;;;;;;;16.59;74.62;101447.61;105256;1261;72081;-61
2023/10/04 11:09:37;;;;;;;5.70;2.10;;;;;;;16.95;74.69;101450.61;105092;1262;69139;-61
2023/10/04 11:12:13;;;;;;;5.80;2.10;;;;;;;17.15;74.33;101452.11;105091;1261;69222;-61
2023/10/04 11:14:42;;;;;;;5.10;1.80;;;;;;;17.11;73.55;101454.62;105131;1261;74160;-61
2023/10/04 11:17:10;;;;;;;5.60;1.90;;;;;;;17.03;72.69;101456.79;105085;1262;81496;-61
2023/10/04 11:19:38;;;;;;;5.80;2.30;;;;;;;17.29;73.15;101458.86;105365;1264;71918;-61
2023/10/04 11:22:08;;;;;;;4.00;2.00;;;;;;;17.57;73.10;101454.67;105088;1263;69068;-62
2023/10/04 11:24:36;;;;;;;5.20;2.60;;;;;;;17.72;72.86;101458.72;105218;1261;69207;-61
2023/10/04 11:27:07;;;;;;;5.90;2.10;;;;;;;17.87;72.08;101446.85;105272;1261;72865;-61
2023/10/04 11:29:37;;;;;;;9.30;2.50;;;;;;;17.81;71.29;101459.19;105257;1261;81378;-63
2023/10/04 11:32:06;;;;;;;5.50;1.80;;;;;;;17.84;71.11;101447.50;105219;1261;71788;-62
2023/10/04 11:34:36;;;;;;;6.20;1.80;;;;;;;18.00;70.97;101450.77;105154;1264;69111;-60